sensor_id;sensor_type;location;lat;lon;timestamp;P1;durP1;ratioP1;P2;durP2;ratioP2
16063;SDS011;8136;53.172;8.256;2022-08-11T00:01:50;6.20;;;4.10;;
16063;SDS011;8136;53.172;8.256;2022-08-11T00:04:20;4.10;;;3.80;;
16063;SDS011;8136;53.172;8.256;2022-08-11T00:06:48;4.80;;;4.27;;
16063;SDS011;8136;53.172;8.256;2022-08-11T00:09:17;5.93;;;5.53;;
16063;SDS011;8136;53.172;8.256;2022-08-11T00:11:47;5.70;;;5.03;;
16063;SDS011;8136;53.172;8.256;2022-08-11T00:14:18;6.03;;;5.53;;
16063;SDS011;8136;53.172;8.256;2022-08-11T00:16:54;5.20;;;4.70;;
16063;SDS011;8136;53.172;8.256;2022-08-11T00:19:23;4.87;;;4.47;;
16063;SDS011;8136;53.172;8.256;2022-08-11T00:21:52;5.07;;;4.67;;
16063;SDS011;8136;53.172;8.256;2022-08-11T00:24:20;4.90;;;4.50;;
16063;SDS011;8136;53.172;8.256;2022-08-11T00:26:49;4.50;;;4.10;;
16063;SDS011;8136;53.172;8.256;2022-08-11T00:29:17;5.23;;;4.73;;
16063;SDS011;8136;53.172;8.256;2022-08-11T00:31:46;5.13;;;4.43;;
16063;SDS011;8136;53.172;8.256;2022-08-11T00:37:37;5.03;;;4.60;;
16063;SDS011;8136;53.172;8.256;2022-08-11T00:40:07;5.13;;;4.60;;
16063;SDS011;8136;53.172;8.256;2022-08-11T00:42:42;5.73;;;5.03;;
16063;SDS011;8136;53.172;8.256;2022-08-11T00:45:19;4.70;;;4.23;;
16063;SDS011;8136;53.172;8.256;2022-08-11T00:47:55;4.63;;;4.20;;
16063;SDS011;8136;53.172;8.256;2022-08-11T00:50:28;4.60;;;4.30;;
16063;SDS011;8136;53.172;8.256;2022-08-11T00:53:11;4.73;;;4.33;;
16063;SDS011;8136;53.172;8.256;2022-08-11T00:59:17;11.27;;;10.37;;
16063;SDS011;8136;53.172;8.256;2022-08-11T01:02:15;8.80;;;8.13;;
16063;SDS011;8136;53.172;8.256;2022-08-11T01:11:20;6.13;;;5.60;;
16063;SDS011;8136;53.172;8.256;2022-08-11T01:30:02;6.07;;;5.67;;
16063;SDS011;8136;53.172;8.256;2022-08-11T01:36:09;5.90;;;4.83;;
16063;SDS011;8136;53.172;8.256;2022-08-11T01:39:09;5.60;;;4.83;;
16063;SDS011;8136;53.172;8.256;2022-08-11T01:45:29;5.47;;;4.97;;
16063;SDS011;8136;53.172;8.256;2022-08-11T01:48:03;5.17;;;4.70;;
16063;SDS011;8136;53.172;8.256;2022-08-11T01:50:44;5.70;;;5.23;;
16063;SDS011;8136;53.172;8.256;2022-08-11T01:53:27;5.50;;;5.10;;
16063;SDS011;8136;53.172;8.256;2022-08-11T01:56:06;4.93;;;4.50;;
16063;SDS011;8136;53.172;8.256;2022-08-11T01:58:41;6.23;;;5.07;;
16063;SDS011;8136;53.172;8.256;2022-08-11T02:01:21;4.60;;;4.30;;
16063;SDS011;8136;53.172;8.256;2022-08-11T02:03:58;6.17;;;5.67;;
16063;SDS011;8136;53.172;8.256;2022-08-11T02:06:36;5.47;;;5.00;;
16063;SDS011;8136;53.172;8.256;2022-08-11T02:09:32;5.33;;;4.87;;
16063;SDS011;8136;53.172;8.256;2022-08-11T02:12:12;5.37;;;4.80;;
16063;SDS011;8136;53.172;8.256;2022-08-11T02:14:44;7.10;;;5.03;;
16063;SDS011;8136;53.172;8.256;2022-08-11T02:17:20;5.10;;;4.70;;
16063;SDS011;8136;53.172;8.256;2022-08-11T02:20:17;5.17;;;4.77;;
16063;SDS011;8136;53.172;8.256;2022-08-11T02:23:08;5.50;;;5.10;;
16063;SDS011;8136;53.172;8.256;2022-08-11T02:26:13;5.77;;;5.17;;
16063;SDS011;8136;53.172;8.256;2022-08-11T02:28:48;5.57;;;5.07;;
16063;SDS011;8136;53.172;8.256;2022-08-11T02:31:26;6.27;;;5.13;;
16063;SDS011;8136;53.172;8.256;2022-08-11T02:34:27;5.23;;;4.63;;
16063;SDS011;8136;53.172;8.256;2022-08-11T02:37:06;5.20;;;4.73;;
16063;SDS011;8136;53.172;8.256;2022-08-11T02:39:45;6.60;;;5.50;;
16063;SDS011;8136;53.172;8.256;2022-08-11T02:42:28;6.30;;;5.80;;
16063;SDS011;8136;53.172;8.256;2022-08-11T02:45:07;5.87;;;5.37;;
16063;SDS011;8136;53.172;8.256;2022-08-11T02:47:45;5.07;;;4.67;;
16063;SDS011;8136;53.172;8.256;2022-08-11T02:50:34;5.27;;;4.77;;
16063;SDS011;8136;53.172;8.256;2022-08-11T02:53:07;5.70;;;5.00;;
16063;SDS011;8136;53.172;8.256;2022-08-11T02:55:43;5.63;;;5.13;;
16063;SDS011;8136;53.172;8.256;2022-08-11T02:58:25;6.00;;;5.50;;
16063;SDS011;8136;53.172;8.256;2022-08-11T03:01:03;5.83;;;5.33;;
16063;SDS011;8136;53.172;8.256;2022-08-11T03:03:37;6.03;;;5.30;;
16063;SDS011;8136;53.172;8.256;2022-08-11T03:06:18;5.63;;;5.13;;
16063;SDS011;8136;53.172;8.256;2022-08-11T03:08:52;5.60;;;5.10;;
16063;SDS011;8136;53.172;8.256;2022-08-11T03:11:30;6.57;;;6.07;;
16063;SDS011;8136;53.172;8.256;2022-08-11T03:14:26;5.93;;;5.43;;
16063;SDS011;8136;53.172;8.256;2022-08-11T03:17:20;5.60;;;5.10;;
16063;SDS011;8136;53.172;8.256;2022-08-11T03:22:54;5.63;;;5.23;;
16063;SDS011;8136;53.172;8.256;2022-08-11T03:25:28;5.57;;;4.93;;
16063;SDS011;8136;53.172;8.256;2022-08-11T03:27:59;8.57;;;5.73;;
16063;SDS011;8136;53.172;8.256;2022-08-11T03:30:41;7.80;;;5.93;;
16063;SDS011;8136;53.172;8.256;2022-08-11T03:33:16;8.10;;;5.97;;
16063;SDS011;8136;53.172;8.256;2022-08-11T03:36:06;6.50;;;5.63;;
16063;SDS011;8136;53.172;8.256;2022-08-11T03:38:52;7.97;;;6.10;;
16063;SDS011;8136;53.172;8.256;2022-08-11T03:41:28;6.37;;;5.70;;
16063;SDS011;8136;53.172;8.256;2022-08-11T03:44:09;6.60;;;5.93;;
16063;SDS011;8136;53.172;8.256;2022-08-11T03:46:57;6.57;;;5.97;;
16063;SDS011;8136;53.172;8.256;2022-08-11T03:49:35;7.47;;;5.80;;
16063;SDS011;8136;53.172;8.256;2022-08-11T03:52:10;6.10;;;5.50;;
16063;SDS011;8136;53.172;8.256;2022-08-11T03:54:54;6.57;;;5.53;;
16063;SDS011;8136;53.172;8.256;2022-08-11T03:57:44;6.60;;;5.83;;
16063;SDS011;8136;53.172;8.256;2022-08-11T04:01:02;6.33;;;4.90;;
16063;SDS011;8136;53.172;8.256;2022-08-11T04:07:17;6.13;;;5.53;;
16063;SDS011;8136;53.172;8.256;2022-08-11T04:10:19;6.23;;;5.30;;
16063;SDS011;8136;53.172;8.256;2022-08-11T04:16:43;6.03;;;5.53;;
16063;SDS011;8136;53.172;8.256;2022-08-11T04:19:26;6.80;;;6.00;;
16063;SDS011;8136;53.172;8.256;2022-08-11T04:25:25;5.87;;;5.17;;
16063;SDS011;8136;53.172;8.256;2022-08-11T04:28:16;6.70;;;6.10;;
16063;SDS011;8136;53.172;8.256;2022-08-11T04:34:03;7.00;;;6.40;;
16063;SDS011;8136;53.172;8.256;2022-08-11T04:43:23;5.50;;;4.87;;
16063;SDS011;8136;53.172;8.256;2022-08-11T04:46:19;6.13;;;5.27;;
16063;SDS011;8136;53.172;8.256;2022-08-11T04:49:04;6.53;;;5.80;;
16063;SDS011;8136;53.172;8.256;2022-08-11T04:52:04;5.83;;;5.33;;
16063;SDS011;8136;53.172;8.256;2022-08-11T04:55:13;5.90;;;5.03;;
16063;SDS011;8136;53.172;8.256;2022-08-11T04:58:12;7.07;;;4.83;;
16063;SDS011;8136;53.172;8.256;2022-08-11T05:01:14;6.07;;;5.57;;
16063;SDS011;8136;53.172;8.256;2022-08-11T05:04:11;6.10;;;5.07;;
16063;SDS011;8136;53.172;8.256;2022-08-11T05:07:11;9.63;;;5.23;;
16063;SDS011;8136;53.172;8.256;2022-08-11T05:09:59;10.20;;;5.63;;
16063;SDS011;8136;53.172;8.256;2022-08-11T05:12:35;9.23;;;6.57;;
16063;SDS011;8136;53.172;8.256;2022-08-11T05:15:09;6.73;;;5.57;;
16063;SDS011;8136;53.172;8.256;2022-08-11T05:17:59;9.93;;;6.70;;
16063;SDS011;8136;53.172;8.256;2022-08-11T05:20:49;7.43;;;5.77;;
16063;SDS011;8136;53.172;8.256;2022-08-11T05:23:38;11.37;;;5.83;;
16063;SDS011;8136;53.172;8.256;2022-08-11T05:26:26;13.83;;;5.67;;
16063;SDS011;8136;53.172;8.256;2022-08-11T05:29:26;17.83;;;7.40;;
16063;SDS011;8136;53.172;8.256;2022-08-11T05:32:21;12.33;;;6.33;;
16063;SDS011;8136;53.172;8.256;2022-08-11T05:35:07;10.87;;;6.23;;
16063;SDS011;8136;53.172;8.256;2022-08-11T05:37:40;14.30;;;6.07;;
16063;SDS011;8136;53.172;8.256;2022-08-11T05:40:27;14.40;;;6.83;;
16063;SDS011;8136;53.172;8.256;2022-08-11T05:43:13;9.10;;;6.77;;
16063;SDS011;8136;53.172;8.256;2022-08-11T05:45:59;12.27;;;6.60;;
16063;SDS011;8136;53.172;8.256;2022-08-11T05:48:44;6.83;;;6.13;;
16063;SDS011;8136;53.172;8.256;2022-08-11T05:51:34;12.97;;;6.73;;
16063;SDS011;8136;53.172;8.256;2022-08-11T05:54:20;7.40;;;6.27;;
16063;SDS011;8136;53.172;8.256;2022-08-11T06:00:17;7.07;;;6.37;;
16063;SDS011;8136;53.172;8.256;2022-08-11T06:02:45;7.40;;;6.13;;
16063;SDS011;8136;53.172;8.256;2022-08-11T06:05:19;6.27;;;5.67;;
16063;SDS011;8136;53.172;8.256;2022-08-11T06:07:48;9.03;;;6.50;;
16063;SDS011;8136;53.172;8.256;2022-08-11T06:10:26;8.13;;;6.00;;
16063;SDS011;8136;53.172;8.256;2022-08-11T06:12:57;7.53;;;5.73;;
16063;SDS011;8136;53.172;8.256;2022-08-11T06:15:26;6.33;;;5.57;;
16063;SDS011;8136;53.172;8.256;2022-08-11T06:17:54;6.57;;;5.93;;
16063;SDS011;8136;53.172;8.256;2022-08-11T06:20:22;8.67;;;6.20;;
16063;SDS011;8136;53.172;8.256;2022-08-11T06:22:55;7.97;;;6.17;;
16063;SDS011;8136;53.172;8.256;2022-08-11T06:25:29;7.27;;;6.23;;
16063;SDS011;8136;53.172;8.256;2022-08-11T06:27:56;6.63;;;6.03;;
16063;SDS011;8136;53.172;8.256;2022-08-11T06:30:31;5.53;;;5.03;;
16063;SDS011;8136;53.172;8.256;2022-08-11T06:33:00;6.20;;;5.80;;
16063;SDS011;8136;53.172;8.256;2022-08-11T06:35:32;5.40;;;4.73;;
16063;SDS011;8136;53.172;8.256;2022-08-11T06:38:12;6.10;;;5.30;;
16063;SDS011;8136;53.172;8.256;2022-08-11T06:40:50;7.20;;;5.13;;
16063;SDS011;8136;53.172;8.256;2022-08-11T06:43:35;5.43;;;4.90;;
16063;SDS011;8136;53.172;8.256;2022-08-11T06:46:12;6.00;;;4.80;;
16063;SDS011;8136;53.172;8.256;2022-08-11T06:48:43;7.10;;;4.97;;
16063;SDS011;8136;53.172;8.256;2022-08-11T06:51:11;5.67;;;4.53;;
16063;SDS011;8136;53.172;8.256;2022-08-11T06:53:39;5.90;;;4.70;;
16063;SDS011;8136;53.172;8.256;2022-08-11T06:56:09;5.40;;;4.90;;
16063;SDS011;8136;53.172;8.256;2022-08-11T06:58:56;6.33;;;5.33;;
16063;SDS011;8136;53.172;8.256;2022-08-11T07:01:45;4.97;;;4.50;;
16063;SDS011;8136;53.172;8.256;2022-08-11T07:04:31;4.97;;;4.03;;
16063;SDS011;8136;53.172;8.256;2022-08-11T07:10:32;4.90;;;4.30;;
16063;SDS011;8136;53.172;8.256;2022-08-11T07:16:50;4.63;;;3.73;;
16063;SDS011;8136;53.172;8.256;2022-08-11T07:19:19;4.70;;;4.10;;
16063;SDS011;8136;53.172;8.256;2022-08-11T07:22:08;4.73;;;3.70;;
16063;SDS011;8136;53.172;8.256;2022-08-11T07:24:56;7.57;;;3.77;;
16063;SDS011;8136;53.172;8.256;2022-08-11T07:28:00;4.03;;;3.73;;
16063;SDS011;8136;53.172;8.256;2022-08-11T07:30:46;4.63;;;4.27;;
16063;SDS011;8136;53.172;8.256;2022-08-11T07:43:26;5.70;;;3.80;;
16063;SDS011;8136;53.172;8.256;2022-08-11T07:45:53;7.53;;;4.10;;
16063;SDS011;8136;53.172;8.256;2022-08-11T07:48:38;5.53;;;3.43;;
16063;SDS011;8136;53.172;8.256;2022-08-11T07:51:25;4.17;;;3.77;;
16063;SDS011;8136;53.172;8.256;2022-08-11T07:54:10;5.27;;;3.80;;
16063;SDS011;8136;53.172;8.256;2022-08-11T07:56:39;6.47;;;3.63;;
16063;SDS011;8136;53.172;8.256;2022-08-11T07:59:07;4.60;;;3.63;;
16063;SDS011;8136;53.172;8.256;2022-08-11T08:01:52;5.87;;;4.23;;
16063;SDS011;8136;53.172;8.256;2022-08-11T08:14:44;5.47;;;3.73;;
16063;SDS011;8136;53.172;8.256;2022-08-11T08:17:29;5.27;;;4.50;;
16063;SDS011;8136;53.172;8.256;2022-08-11T08:23:37;3.97;;;3.67;;
16063;SDS011;8136;53.172;8.256;2022-08-11T08:26:05;5.03;;;4.60;;
16063;SDS011;8136;53.172;8.256;2022-08-11T08:28:54;4.50;;;4.20;;
16063;SDS011;8136;53.172;8.256;2022-08-11T08:31:43;4.73;;;4.30;;
16063;SDS011;8136;53.172;8.256;2022-08-11T08:34:11;5.87;;;4.10;;
16063;SDS011;8136;53.172;8.256;2022-08-11T08:36:41;5.87;;;4.63;;
16063;SDS011;8136;53.172;8.256;2022-08-11T08:39:09;5.37;;;4.87;;
16063;SDS011;8136;53.172;8.256;2022-08-11T08:41:38;5.07;;;4.67;;
16063;SDS011;8136;53.172;8.256;2022-08-11T08:44:07;4.40;;;4.00;;
16063;SDS011;8136;53.172;8.256;2022-08-11T08:46:38;4.10;;;3.47;;
16063;SDS011;8136;53.172;8.256;2022-08-11T08:49:09;4.27;;;3.87;;
16063;SDS011;8136;53.172;8.256;2022-08-11T08:51:48;4.77;;;4.30;;
16063;SDS011;8136;53.172;8.256;2022-08-11T08:54:19;5.00;;;4.60;;
16063;SDS011;8136;53.172;8.256;2022-08-11T08:56:49;6.43;;;4.07;;
16063;SDS011;8136;53.172;8.256;2022-08-11T08:59:20;4.67;;;3.73;;
16063;SDS011;8136;53.172;8.256;2022-08-11T09:01:50;8.27;;;4.20;;
16063;SDS011;8136;53.172;8.256;2022-08-11T09:04:22;4.67;;;3.97;;
16063;SDS011;8136;53.172;8.256;2022-08-11T09:06:50;4.70;;;4.30;;
16063;SDS011;8136;53.172;8.256;2022-08-11T09:09:18;4.50;;;4.23;;
16063;SDS011;8136;53.172;8.256;2022-08-11T09:11:46;4.60;;;4.00;;
16063;SDS011;8136;53.172;8.256;2022-08-11T09:14:18;3.50;;;3.20;;
16063;SDS011;8136;53.172;8.256;2022-08-11T09:16:47;3.67;;;2.83;;
16063;SDS011;8136;53.172;8.256;2022-08-11T09:19:15;4.93;;;3.30;;
16063;SDS011;8136;53.172;8.256;2022-08-11T09:21:45;3.50;;;3.17;;
16063;SDS011;8136;53.172;8.256;2022-08-11T09:24:37;3.93;;;3.50;;
16063;SDS011;8136;53.172;8.256;2022-08-11T09:27:23;3.87;;;3.57;;
16063;SDS011;8136;53.172;8.256;2022-08-11T09:29:51;3.57;;;3.27;;
16063;SDS011;8136;53.172;8.256;2022-08-11T09:32:19;5.07;;;4.50;;
16063;SDS011;8136;53.172;8.256;2022-08-11T09:34:47;6.13;;;4.17;;
16063;SDS011;8136;53.172;8.256;2022-08-11T09:37:17;5.57;;;3.97;;
16063;SDS011;8136;53.172;8.256;2022-08-11T09:40:05;4.17;;;3.87;;
16063;SDS011;8136;53.172;8.256;2022-08-11T09:42:51;3.50;;;2.80;;
16063;SDS011;8136;53.172;8.256;2022-08-11T09:45:36;3.23;;;2.63;;
16063;SDS011;8136;53.172;8.256;2022-08-11T09:48:04;5.10;;;3.20;;
16063;SDS011;8136;53.172;8.256;2022-08-11T09:50:31;2.57;;;2.40;;
16063;SDS011;8136;53.172;8.256;2022-08-11T09:53:00;2.37;;;1.97;;
16063;SDS011;8136;53.172;8.256;2022-08-11T09:55:30;3.63;;;2.07;;
16063;SDS011;8136;53.172;8.256;2022-08-11T09:57:57;2.40;;;2.17;;
16063;SDS011;8136;53.172;8.256;2022-08-11T10:00:46;4.33;;;2.07;;
16063;SDS011;8136;53.172;8.256;2022-08-11T10:03:15;3.33;;;2.67;;
16063;SDS011;8136;53.172;8.256;2022-08-11T10:05:43;2.57;;;2.23;;
16063;SDS011;8136;53.172;8.256;2022-08-11T10:08:31;2.87;;;2.60;;
16063;SDS011;8136;53.172;8.256;2022-08-11T10:10:59;3.10;;;2.90;;
16063;SDS011;8136;53.172;8.256;2022-08-11T10:13:28;5.03;;;2.70;;
16063;SDS011;8136;53.172;8.256;2022-08-11T10:16:18;3.67;;;2.80;;
16063;SDS011;8136;53.172;8.256;2022-08-11T10:18:50;3.03;;;2.60;;
16063;SDS011;8136;53.172;8.256;2022-08-11T10:21:26;3.03;;;2.53;;
16063;SDS011;8136;53.172;8.256;2022-08-11T10:24:00;3.43;;;3.13;;
16063;SDS011;8136;53.172;8.256;2022-08-11T10:26:47;3.07;;;2.80;;
16063;SDS011;8136;53.172;8.256;2022-08-11T10:29:19;3.33;;;3.03;;
16063;SDS011;8136;53.172;8.256;2022-08-11T10:32:05;3.13;;;2.93;;
16063;SDS011;8136;53.172;8.256;2022-08-11T10:34:52;3.10;;;2.80;;
16063;SDS011;8136;53.172;8.256;2022-08-11T10:37:20;3.33;;;3.13;;
16063;SDS011;8136;53.172;8.256;2022-08-11T10:39:51;3.23;;;2.40;;
16063;SDS011;8136;53.172;8.256;2022-08-11T10:42:20;2.37;;;2.17;;
16063;SDS011;8136;53.172;8.256;2022-08-11T10:45:05;4.63;;;2.67;;
16063;SDS011;8136;53.172;8.256;2022-08-11T10:47:54;3.27;;;3.03;;
16063;SDS011;8136;53.172;8.256;2022-08-11T10:50:21;4.07;;;3.40;;
16063;SDS011;8136;53.172;8.256;2022-08-11T10:53:07;2.50;;;2.07;;
16063;SDS011;8136;53.172;8.256;2022-08-11T10:55:55;2.33;;;2.13;;
16063;SDS011;8136;53.172;8.256;2022-08-11T10:58:41;3.03;;;2.77;;
16063;SDS011;8136;53.172;8.256;2022-08-11T11:01:13;2.30;;;2.10;;
16063;SDS011;8136;53.172;8.256;2022-08-11T11:03:41;3.17;;;2.97;;
16063;SDS011;8136;53.172;8.256;2022-08-11T11:06:12;3.80;;;3.17;;
16063;SDS011;8136;53.172;8.256;2022-08-11T11:08:50;3.23;;;3.03;;
16063;SDS011;8136;53.172;8.256;2022-08-11T11:11:22;3.07;;;2.87;;
16063;SDS011;8136;53.172;8.256;2022-08-11T11:14:16;3.03;;;2.83;;
16063;SDS011;8136;53.172;8.256;2022-08-11T11:17:03;2.90;;;2.70;;
16063;SDS011;8136;53.172;8.256;2022-08-11T11:19:50;2.43;;;2.33;;
16063;SDS011;8136;53.172;8.256;2022-08-11T11:22:22;4.67;;;2.73;;
16063;SDS011;8136;53.172;8.256;2022-08-11T11:25:09;2.87;;;2.67;;
16063;SDS011;8136;53.172;8.256;2022-08-11T11:27:51;3.57;;;2.60;;
16063;SDS011;8136;53.172;8.256;2022-08-11T11:30:26;3.33;;;3.03;;
16063;SDS011;8136;53.172;8.256;2022-08-11T11:33:03;2.80;;;2.60;;
16063;SDS011;8136;53.172;8.256;2022-08-11T11:35:38;2.57;;;2.37;;
16063;SDS011;8136;53.172;8.256;2022-08-11T11:38:12;3.10;;;2.50;;
16063;SDS011;8136;53.172;8.256;2022-08-11T11:44:03;2.70;;;2.53;;
16063;SDS011;8136;53.172;8.256;2022-08-11T11:46:31;2.60;;;2.10;;
16063;SDS011;8136;53.172;8.256;2022-08-11T11:48:58;4.07;;;3.20;;
16063;SDS011;8136;53.172;8.256;2022-08-11T11:51:31;3.50;;;3.30;;
16063;SDS011;8136;53.172;8.256;2022-08-11T11:53:58;3.70;;;3.43;;
16063;SDS011;8136;53.172;8.256;2022-08-11T11:56:27;3.93;;;3.73;;
16063;SDS011;8136;53.172;8.256;2022-08-11T11:58:54;4.30;;;3.93;;
16063;SDS011;8136;53.172;8.256;2022-08-11T12:01:41;3.53;;;2.80;;
16063;SDS011;8136;53.172;8.256;2022-08-11T12:04:09;3.77;;;1.83;;
16063;SDS011;8136;53.172;8.256;2022-08-11T12:06:38;3.90;;;3.73;;
16063;SDS011;8136;53.172;8.256;2022-08-11T12:09:06;3.60;;;3.13;;
16063;SDS011;8136;53.172;8.256;2022-08-11T12:11:38;3.83;;;3.53;;
16063;SDS011;8136;53.172;8.256;2022-08-11T12:14:23;3.03;;;2.80;;
16063;SDS011;8136;53.172;8.256;2022-08-11T12:16:54;3.97;;;3.77;;
16063;SDS011;8136;53.172;8.256;2022-08-11T12:19:22;3.27;;;3.07;;
16063;SDS011;8136;53.172;8.256;2022-08-11T12:21:52;4.53;;;3.50;;
16063;SDS011;8136;53.172;8.256;2022-08-11T12:24:38;3.97;;;3.43;;
16063;SDS011;8136;53.172;8.256;2022-08-11T12:27:23;4.97;;;4.67;;
16063;SDS011;8136;53.172;8.256;2022-08-11T12:29:53;3.33;;;3.07;;
16063;SDS011;8136;53.172;8.256;2022-08-11T12:32:25;3.43;;;3.23;;
16063;SDS011;8136;53.172;8.256;2022-08-11T12:34:54;4.23;;;3.43;;
16063;SDS011;8136;53.172;8.256;2022-08-11T12:37:22;2.83;;;2.40;;
16063;SDS011;8136;53.172;8.256;2022-08-11T12:39:56;3.30;;;3.13;;
16063;SDS011;8136;53.172;8.256;2022-08-11T12:42:43;3.33;;;3.20;;
16063;SDS011;8136;53.172;8.256;2022-08-11T12:45:29;4.23;;;3.93;;
16063;SDS011;8136;53.172;8.256;2022-08-11T12:48:00;4.33;;;4.13;;
16063;SDS011;8136;53.172;8.256;2022-08-11T12:50:53;4.20;;;4.00;;
16063;SDS011;8136;53.172;8.256;2022-08-11T12:53:43;4.90;;;4.60;;
16063;SDS011;8136;53.172;8.256;2022-08-11T12:56:26;5.03;;;4.73;;
16063;SDS011;8136;53.172;8.256;2022-08-11T12:59:14;4.77;;;4.33;;
16063;SDS011;8136;53.172;8.256;2022-08-11T13:01:59;4.80;;;4.53;;
16063;SDS011;8136;53.172;8.256;2022-08-11T13:04:46;4.57;;;4.27;;
16063;SDS011;8136;53.172;8.256;2022-08-11T13:07:18;3.43;;;3.13;;
16063;SDS011;8136;53.172;8.256;2022-08-11T13:09:45;3.47;;;3.20;;
16063;SDS011;8136;53.172;8.256;2022-08-11T13:12:12;4.37;;;4.17;;
16063;SDS011;8136;53.172;8.256;2022-08-11T13:14:58;3.57;;;3.37;;
16063;SDS011;8136;53.172;8.256;2022-08-11T13:17:27;4.70;;;4.40;;
16063;SDS011;8136;53.172;8.256;2022-08-11T13:19:57;5.10;;;3.40;;
16063;SDS011;8136;53.172;8.256;2022-08-11T13:22:25;5.33;;;5.03;;
16063;SDS011;8136;53.172;8.256;2022-08-11T13:24:52;4.47;;;4.17;;
16063;SDS011;8136;53.172;8.256;2022-08-11T13:27:20;3.73;;;3.47;;
16063;SDS011;8136;53.172;8.256;2022-08-11T13:29:48;4.83;;;4.53;;
16063;SDS011;8136;53.172;8.256;2022-08-11T13:32:36;4.70;;;3.22;;
16063;SDS011;8136;53.172;8.256;2022-08-11T13:35:06;3.15;;;2.95;;
16063;SDS011;8136;53.172;8.256;2022-08-11T13:37:34;4.28;;;2.97;;
16063;SDS011;8136;53.172;8.256;2022-08-11T13:40:01;3.08;;;2.92;;
16063;SDS011;8136;53.172;8.256;2022-08-11T13:42:29;3.20;;;3.10;;
16063;SDS011;8136;53.172;8.256;2022-08-11T13:44:56;3.28;;;3.10;;
16063;SDS011;8136;53.172;8.256;2022-08-11T13:47:24;2.35;;;2.25;;
16063;SDS011;8136;53.172;8.256;2022-08-11T13:49:51;3.00;;;2.80;;
16063;SDS011;8136;53.172;8.256;2022-08-11T13:52:20;4.25;;;3.05;;
16063;SDS011;8136;53.172;8.256;2022-08-11T13:54:48;3.50;;;3.20;;
16063;SDS011;8136;53.172;8.256;2022-08-11T13:57:17;4.30;;;4.00;;
16063;SDS011;8136;53.172;8.256;2022-08-11T13:59:45;4.53;;;4.28;;
16063;SDS011;8136;53.172;8.256;2022-08-11T14:02:18;4.13;;;3.92;;
16063;SDS011;8136;53.172;8.256;2022-08-11T14:04:50;4.25;;;3.80;;
16063;SDS011;8136;53.172;8.256;2022-08-11T14:07:22;3.72;;;3.47;;
16063;SDS011;8136;53.172;8.256;2022-08-11T14:09:52;4.30;;;3.80;;
16063;SDS011;8136;53.172;8.256;2022-08-11T14:12:22;3.72;;;3.53;;
16063;SDS011;8136;53.172;8.256;2022-08-11T14:15:09;3.42;;;3.22;;
16063;SDS011;8136;53.172;8.256;2022-08-11T14:17:43;3.03;;;2.50;;
16063;SDS011;8136;53.172;8.256;2022-08-11T14:20:14;3.08;;;2.03;;
16063;SDS011;8136;53.172;8.256;2022-08-11T14:22:45;1.88;;;1.77;;
16063;SDS011;8136;53.172;8.256;2022-08-11T14:25:12;2.92;;;1.92;;
16063;SDS011;8136;53.172;8.256;2022-08-11T14:27:40;1.80;;;1.70;;
16063;SDS011;8136;53.172;8.256;2022-08-11T14:30:10;3.13;;;1.80;;
16063;SDS011;8136;53.172;8.256;2022-08-11T14:32:58;2.63;;;1.98;;
16063;SDS011;8136;53.172;8.256;2022-08-11T14:35:26;3.63;;;1.88;;
16063;SDS011;8136;53.172;8.256;2022-08-11T14:37:55;3.15;;;1.63;;
16063;SDS011;8136;53.172;8.256;2022-08-11T14:40:23;1.85;;;1.40;;
16063;SDS011;8136;53.172;8.256;2022-08-11T14:43:20;3.33;;;1.70;;
16063;SDS011;8136;53.172;8.256;2022-08-11T14:46:05;2.08;;;1.88;;
16063;SDS011;8136;53.172;8.256;2022-08-11T14:48:51;3.13;;;2.10;;
16063;SDS011;8136;53.172;8.256;2022-08-11T14:51:18;3.85;;;1.65;;
16063;SDS011;8136;53.172;8.256;2022-08-11T14:53:49;3.13;;;1.85;;
16063;SDS011;8136;53.172;8.256;2022-08-11T14:56:36;2.60;;;1.60;;
16063;SDS011;8136;53.172;8.256;2022-08-11T14:59:02;1.88;;;1.73;;
16063;SDS011;8136;53.172;8.256;2022-08-11T15:01:29;2.15;;;1.77;;
16063;SDS011;8136;53.172;8.256;2022-08-11T15:04:14;2.05;;;1.83;;
16063;SDS011;8136;53.172;8.256;2022-08-11T15:06:41;1.95;;;1.50;;
16063;SDS011;8136;53.172;8.256;2022-08-11T15:09:09;1.92;;;1.60;;
16063;SDS011;8136;53.172;8.256;2022-08-11T15:11:36;2.40;;;1.58;;
16063;SDS011;8136;53.172;8.256;2022-08-11T15:14:21;3.67;;;2.25;;
16063;SDS011;8136;53.172;8.256;2022-08-11T15:17:02;2.35;;;1.30;;
16063;SDS011;8136;53.172;8.256;2022-08-11T15:19:34;2.47;;;1.40;;
16063;SDS011;8136;53.172;8.256;2022-08-11T15:22:24;1.70;;;1.60;;
16063;SDS011;8136;53.172;8.256;2022-08-11T15:25:10;1.75;;;1.40;;
16063;SDS011;8136;53.172;8.256;2022-08-11T15:27:37;1.80;;;1.58;;
16063;SDS011;8136;53.172;8.256;2022-08-11T15:30:34;2.28;;;1.60;;
16063;SDS011;8136;53.172;8.256;2022-08-11T15:33:19;3.42;;;1.75;;
16063;SDS011;8136;53.172;8.256;2022-08-11T15:36:06;1.67;;;1.55;;
16063;SDS011;8136;53.172;8.256;2022-08-11T15:38:53;3.00;;;1.45;;
16063;SDS011;8136;53.172;8.256;2022-08-11T15:41:27;1.73;;;1.50;;
16063;SDS011;8136;53.172;8.256;2022-08-11T15:44:21;2.08;;;1.75;;
16063;SDS011;8136;53.172;8.256;2022-08-11T15:47:18;4.28;;;1.60;;
16063;SDS011;8136;53.172;8.256;2022-08-11T15:49:52;4.18;;;1.50;;
16063;SDS011;8136;53.172;8.256;2022-08-11T15:55:00;2.40;;;1.70;;
16063;SDS011;8136;53.172;8.256;2022-08-11T15:57:32;2.97;;;1.60;;
16063;SDS011;8136;53.172;8.256;2022-08-11T16:00:19;1.70;;;1.58;;
16063;SDS011;8136;53.172;8.256;2022-08-11T16:03:04;1.75;;;1.42;;
16063;SDS011;8136;53.172;8.256;2022-08-11T16:05:51;2.78;;;1.80;;
16063;SDS011;8136;53.172;8.256;2022-08-11T16:08:18;1.63;;;1.52;;
16063;SDS011;8136;53.172;8.256;2022-08-11T16:10:49;1.45;;;1.25;;
16063;SDS011;8136;53.172;8.256;2022-08-11T16:13:19;3.05;;;1.70;;
16063;SDS011;8136;53.172;8.256;2022-08-11T16:16:05;1.95;;;1.70;;
16063;SDS011;8136;53.172;8.256;2022-08-11T16:18:42;3.25;;;2.22;;
16063;SDS011;8136;53.172;8.256;2022-08-11T16:21:23;2.90;;;2.55;;
16063;SDS011;8136;53.172;8.256;2022-08-11T16:23:53;4.75;;;2.03;;
16063;SDS011;8136;53.172;8.256;2022-08-11T16:26:23;4.18;;;3.88;;
16063;SDS011;8136;53.172;8.256;2022-08-11T16:28:53;4.05;;;3.75;;
16063;SDS011;8136;53.172;8.256;2022-08-11T16:31:22;5.40;;;4.88;;
16063;SDS011;8136;53.172;8.256;2022-08-11T16:33:51;5.20;;;4.80;;
16063;SDS011;8136;53.172;8.256;2022-08-11T16:36:19;6.63;;;6.22;;
16063;SDS011;8136;53.172;8.256;2022-08-11T16:39:05;4.75;;;4.43;;
16063;SDS011;8136;53.172;8.256;2022-08-11T16:41:33;7.28;;;6.57;;
16063;SDS011;8136;53.172;8.256;2022-08-11T16:44:21;7.57;;;6.85;;
16063;SDS011;8136;53.172;8.256;2022-08-11T16:47:09;7.38;;;6.70;;
16063;SDS011;8136;53.172;8.256;2022-08-11T16:49:38;5.73;;;5.43;;
16063;SDS011;8136;53.172;8.256;2022-08-11T16:52:10;7.17;;;6.60;;
16063;SDS011;8136;53.172;8.256;2022-08-11T16:54:38;6.67;;;6.30;;
16063;SDS011;8136;53.172;8.256;2022-08-11T16:57:08;6.30;;;5.90;;
16063;SDS011;8136;53.172;8.256;2022-08-11T16:59:57;4.87;;;4.57;;
16063;SDS011;8136;53.172;8.256;2022-08-11T17:02:31;5.30;;;4.87;;
16063;SDS011;8136;53.172;8.256;2022-08-11T17:05:18;5.30;;;4.80;;
16063;SDS011;8136;53.172;8.256;2022-08-11T17:08:06;4.93;;;4.37;;
16063;SDS011;8136;53.172;8.256;2022-08-11T17:10:57;4.13;;;3.87;;
16063;SDS011;8136;53.172;8.256;2022-08-11T17:13:45;5.57;;;3.90;;
16063;SDS011;8136;53.172;8.256;2022-08-11T17:16:19;4.13;;;3.83;;
16063;SDS011;8136;53.172;8.256;2022-08-11T17:18:50;4.20;;;4.00;;
16063;SDS011;8136;53.172;8.256;2022-08-11T17:21:23;4.20;;;3.77;;
16063;SDS011;8136;53.172;8.256;2022-08-11T17:23:55;3.73;;;3.50;;
16063;SDS011;8136;53.172;8.256;2022-08-11T17:26:25;6.67;;;4.70;;
16063;SDS011;8136;53.172;8.256;2022-08-11T17:29:17;4.00;;;3.60;;
16063;SDS011;8136;53.172;8.256;2022-08-11T17:31:47;4.27;;;4.07;;
16063;SDS011;8136;53.172;8.256;2022-08-11T17:34:32;3.87;;;3.47;;
16063;SDS011;8136;53.172;8.256;2022-08-11T17:37:17;3.93;;;3.17;;
16063;SDS011;8136;53.172;8.256;2022-08-11T17:39:46;3.90;;;3.33;;
16063;SDS011;8136;53.172;8.256;2022-08-11T17:42:14;3.80;;;3.50;;
16063;SDS011;8136;53.172;8.256;2022-08-11T17:45:00;4.20;;;3.90;;